Flight Track Log - Related Links

Times and Time Zones

All times are in EST time to prevent confusion due to time zone crossing. See the BJS262 flight status page for this flight to view local times or setup timezone preferences in your user account.

Time Position Orientation Groundspeed Altitude Reporting Facility
EST Latitude Longitude Course Direction KTS MPH feet Rate Location/Type
Mon 12:22:35 PM 30.0756 -95.5567 301° West 167 192 900  Level Houston Center
Mon 12:23:49 PM 30.1061 -95.6158 301° West 175 201 2,700 1,483 Climbing Houston Center
Mon 12:24:04 PM 30.1156 -95.6169 354° North 163 188 3,100 2,656 Climbing Houston Center
Mon 12:24:50 PM 30.1467 -95.5772 48° Northeast 221 254 5,400 2,710 Climbing Houston Center
Mon 12:25:06 PM 30.1533 -95.5678 51° Northeast 210 242 5,900 3,077 Climbing Houston Center
Mon 12:26:08 PM 30.1994 -95.4972 53° Northeast 270 311 9,400 3,290 Climbing Houston Center
Mon 12:27:10 PM 30.2525 -95.4058 56° Northeast 336 387 12,700 3,290 Climbing Houston Center
Mon 12:28:12 PM 30.3136 -95.3028 55° Northeast 379 436 16,200 3,696 Climbing Houston Center
Mon 12:29:15 PM 30.3917 -95.1694 56° Northeast 412 474 20,400 3,456 Climbing Houston Center
Mon 12:30:17 PM 30.4611 -95.0517 56° Northeast 428 493 23,400 2,661 Climbing Houston Center
Mon 12:31:19 PM 30.5344 -94.9286 55° Northeast 459 528 25,900 2,468 Climbing Houston Center
Mon 12:32:21 PM 30.6361 -94.8275 41° Northeast 489 563 28,500 2,371 Climbing Houston Center
Mon 12:33:23 PM 30.7503 -94.7406 33° Northeast 492 566 30,800 2,081 Climbing Houston Center
Mon 12:34:25 PM 30.8689 -94.6492 33° Northeast 504 580 32,800 2,129 Climbing Houston Center
Mon 12:35:27 PM 31.0142 -94.5367 34° Northeast 521 600 35,200 2,129 Climbing Houston Center
Mon 12:36:29 PM 31.1356 -94.4419 34° Northeast 531 611 37,200 1,742 Climbing Houston Center
Mon 12:37:31 PM 31.2583 -94.3472 33° Northeast 534 615 38,800 871 Climbing Houston Center
Mon 12:38:33 PM 31.3831 -94.2492 34° Northeast 541 623 39,000 96 Climbing Houston Center
Mon 12:39:36 PM 31.5267 -94.1092 40° Northeast 586 674 39,000 242 Level Houston Center
Mon 12:40:37 PM 31.6258 -93.9633 51° Northeast 572 658 39,500 976 Climbing Houston Center
Mon 12:41:39 PM 31.7228 -93.8194 52° Northeast 564 649 41,000 726 Climbing Houston Center
Mon 12:42:41 PM 31.8200 -93.6783 51° Northeast 560 644 41,000  Level Houston Center
Mon 12:43:43 PM 31.9178 -93.5331 52° Northeast 563 648 41,000  Level Houston Center
Mon 12:44:45 PM 32.0169 -93.3861 51° Northeast 568 654 41,000  Level Houston Center
Mon 12:45:47 PM 32.1147 -93.2403 52° Northeast 566 651 41,000  Level Houston Center
Mon 12:46:44 PM 32.2133 -93.0917 52° Northeast 570 656 41,000  Level Fort Worth Center
Mon 12:47:46 PM 32.3133 -92.9453 51° Northeast 571 657 41,000  Level Fort Worth Center
Mon 12:48:48 PM 32.4167 -92.7881 52° Northeast 566 651 41,000  Level Fort Worth Center
Mon 12:49:51 PM 32.5136 -92.6403 52° Northeast 568 654 41,000  Level Fort Worth Center
Mon 12:50:53 PM 32.6106 -92.4925 52° Northeast 569 655 41,000  Level Fort Worth Center
Mon 12:51:55 PM 32.7289 -92.3136 52° Northeast 576 663 41,000  Level Fort Worth Center
Mon 12:52:57 PM 32.8258 -92.1636 52° Northeast 576 663 41,000  Level Fort Worth Center
Mon 12:53:43 PM 32.9022 -92.0450 52° Northeast 571 657 41,000  Level Memphis Center
Mon 12:54:45 PM 32.9878 -91.9139 52° Northeast 574 661 41,000  Level Memphis Center
Mon 12:55:46 PM 33.1050 -91.7347 52° Northeast 573 659 41,000  Level Memphis Center
Mon 12:56:48 PM 33.2011 -91.5856 52° Northeast 572 658 41,000  Level Memphis Center
Mon 12:57:50 PM 33.2975 -91.4350 53° Northeast 572 658 41,000  Level Memphis Center
Mon 12:58:52 PM 33.3919 -91.2856 53° Northeast 567 652 41,000  Level Memphis Center
Mon 12:59:53 PM 33.4881 -91.1344 53° Northeast 570 656 41,000  Level Memphis Center
Mon 01:00:55 PM 33.5833 -90.9828 53° Northeast 570 656 41,000  Level Memphis Center
Mon 01:01:57 PM 33.6792 -90.8311 53° Northeast 571 657 41,000  Level Memphis Center
Mon 01:02:59 PM 33.7939 -90.6472 53° Northeast 574 661 41,000  Level Memphis Center
Mon 01:04:01 PM 33.8814 -90.5086 53° Northeast 575 662 41,000  Level Memphis Center
Mon 01:05:03 PM 33.9931 -90.3297 53° Northeast 570 656 41,000  Level Memphis Center
Mon 01:06:04 PM 34.0889 -90.1739 53° Northeast 572 658 41,000  Level Memphis Center
Mon 01:07:06 PM 34.1853 -90.0172 53° Northeast 576 663 41,000  Level Memphis Center
Mon 01:08:08 PM 34.2803 -89.8600 54° Northeast 577 664 41,000  Level Memphis Center
Mon 01:09:10 PM 34.3761 -89.7033 53° Northeast 578 665 41,000  Level Memphis Center
Mon 01:10:12 PM 34.4722 -89.5453 54° Northeast 581 669 41,000  Level Memphis Center
Mon 01:11:14 PM 34.5822 -89.3603 54° Northeast 580 667 41,000  Level Memphis Center
Mon 01:12:16 PM 34.6794 -89.2008 53° Northeast 585 673 41,000  Level Memphis Center
Mon 01:13:17 PM 34.7758 -89.0406 54° Northeast 586 674 41,000  Level Memphis Center
Mon 01:14:19 PM 34.8719 -88.8800 54° Northeast 585 673 41,000  Level Memphis Center
Mon 01:15:21 PM 34.9675 -88.7186 54° Northeast 584 672 41,000  Level Memphis Center
Mon 01:16:23 PM 35.0642 -88.5569 54° Northeast 584 672 41,000  Level Memphis Center
Mon 01:17:25 PM 35.1719 -88.3739 54° Northeast 584 672 41,000  Level Memphis Center
Mon 01:18:27 PM 35.2647 -88.2131 55° Northeast 579 666 41,000  Level Memphis Center
Mon 01:19:29 PM 35.3578 -88.0536 54° Northeast 575 662 41,000  Level Memphis Center
Mon 01:20:31 PM 35.4336 -87.8747 62° Northeast 584 672 41,000  Level Memphis Center
Mon 01:21:33 PM 35.5036 -87.6961 64° Northeast 576 663 41,000  Level Memphis Center
Mon 01:22:35 PM 35.5728 -87.5161 65° Northeast 578 665 41,000  Level Memphis Center
Mon 01:23:36 PM 35.6417 -87.3372 65° Northeast 576 663 41,000  Level Memphis Center
Mon 01:24:38 PM 35.7203 -87.1275 65° Northeast 576 663 41,000  Level Memphis Center
Mon 01:25:40 PM 35.7875 -86.9503 65° Northeast 572 658 41,000  Level Memphis Center
Mon 01:26:42 PM 35.8539 -86.7717 65° Northeast 571 657 41,000  Level Memphis Center
Mon 01:27:44 PM 35.9186 -86.5947 66° East 569 655 41,000  Level Memphis Center
Mon 01:28:46 PM 35.9847 -86.4175 65° Northeast 568 654 41,000  Level Memphis Center
Mon 01:29:47 PM 36.0503 -86.2403 65° Northeast 567 652 41,000  Level Memphis Center
Mon 01:30:49 PM 36.1156 -86.0617 66° East 567 652 41,000  Level Memphis Center
Mon 01:31:51 PM 36.1928 -85.8506 66° East 572 658 41,000  Level Memphis Center
Mon 01:32:22 PM 36.2239 -85.7647 66° East 571 657 41,000  Level Indianapolis Center
Mon 01:33:24 PM 36.2894 -85.5847 66° East 569 655 41,000  Level Indianapolis Center
Mon 01:34:25 PM 36.3556 -85.4039 66° East 571 657 41,000  Level Indianapolis Center
Mon 01:35:27 PM 36.4192 -85.2225 66° East 571 657 41,000  Level Indianapolis Center
Mon 01:36:29 PM 36.4836 -85.0386 66° East 573 659 41,000  Level Indianapolis Center
Mon 01:37:30 PM 36.5472 -84.8572 66° East 568 654 41,000  Level Indianapolis Center
Mon 01:38:32 PM 36.6111 -84.6764 66° East 566 651 41,000  Level Indianapolis Center
Mon 01:39:34 PM 36.6842 -84.4675 66° East 567 652 41,000  Level Indianapolis Center
Mon 01:40:35 PM 36.7467 -84.2861 67° East 568 654 41,000  Level Indianapolis Center
Mon 01:41:37 PM 36.8086 -84.1044 67° East 568 654 41,000  Level Indianapolis Center
Mon 01:42:38 PM 36.8708 -83.9233 67° East 567 652 41,000  Level Indianapolis Center
Mon 01:43:40 PM 36.9347 -83.7428 66° East 569 655 41,000  Level Indianapolis Center
Mon 01:44:42 PM 36.9961 -83.5614 67° East 567 652 41,000  Level Indianapolis Center
Mon 01:45:43 PM 37.0572 -83.3794 67° East 567 652 41,000  Level Indianapolis Center
Mon 01:46:45 PM 37.1278 -83.1667 67° East 565 650 41,000  Level Indianapolis Center
Mon 01:47:46 PM 37.1889 -82.9817 67° East 566 651 41,000  Level Indianapolis Center
Mon 01:48:48 PM 37.2492 -82.7958 68° East 568 654 41,000  Level Indianapolis Center
Mon 01:49:50 PM 37.3089 -82.6139 68° East 562 647 41,000  Level Indianapolis Center
Mon 01:50:51 PM 37.3681 -82.4344 67° East 555 639 41,000  Level Indianapolis Center
Mon 01:51:53 PM 37.4258 -82.2556 68° East 551 634 41,000  Level Indianapolis Center
Mon 01:52:54 PM 37.4831 -82.0778 68° East 548 631 41,000  Level Indianapolis Center
Mon 01:53:56 PM 37.5403 -81.8964 68° East 554 638 41,000  Level Indianapolis Center
Mon 01:54:57 PM 37.5972 -81.7167 68° East 553 636 41,000  Level Indianapolis Center
Mon 01:55:59 PM 37.6542 -81.5358 68° East 554 638 41,000  Level Indianapolis Center
Mon 01:57:00 PM 37.7175 -81.3325 68° East 555 639 41,000  Level Indianapolis Center
Mon 01:58:02 PM 37.7728 -81.1558 68° East 556 640 41,000  Level Indianapolis Center
Mon 01:59:04 PM 37.7906 -80.9669 83° East 554 638 41,000  Level Indianapolis Center
Mon 02:00:05 PM 37.8064 -80.7408 85° East 555 639 41,000  Level Indianapolis Center
Mon 02:01:07 PM 37.8164 -80.5750 86° East 551 634 41,000  Level Indianapolis Center
Mon 02:01:39 PM 37.8247 -80.4478 85° East 546 628 41,000  Level Washington Center
Mon 02:02:39 PM 37.8364 -80.2592 85° East 546 628 41,000  Level Washington Center
Mon 02:03:40 PM 37.8500 -80.0681 85° East 546 628 41,000  Level Washington Center
Mon 02:04:41 PM 37.8631 -79.8794 85° East 546 628 41,000  Level Washington Center
Mon 02:05:39 PM 37.8719 -79.6853 87° East 546 628 41,000  Level Washington Center
Mon 02:06:40 PM 37.8839 -79.5147 85° East 546 628 41,000  Level Washington Center
Mon 02:07:41 PM 37.8942 -79.3233 86° East 546 628 41,000  Level Washington Center
Mon 02:08:39 PM 37.9039 -79.1369 86° East 541 623 41,000  Level Washington Center
Mon 02:09:39 PM 37.9239 -78.9508 82° East 535 616 41,000  Level Washington Center
Mon 02:10:40 PM 37.9458 -78.7650 81° East 535 616 41,000  Level Washington Center
Mon 02:11:41 PM 37.9719 -78.5578 81° East 544 626 41,000  Level Washington Center
Mon 02:12:41 PM 37.9931 -78.3717 82° East 544 626 41,000  Level Washington Center
Mon 02:13:40 PM 38.0158 -78.1853 81° East 537 618 41,000  Level Washington Center
Mon 02:14:40 PM 38.0689 -78.0447 64° Northeast 504 580 41,000  Level Washington Center
Mon 02:15:39 PM 38.1450 -77.8886 58° Northeast 504 580 41,000  Level Washington Center
Mon 02:16:40 PM 38.2208 -77.7378 57° Northeast 504 580 41,000  Level Washington Center
Mon 02:17:41 PM 38.2944 -77.5864 58° Northeast 504 580 41,000  Level Washington Center
Mon 02:18:40 PM 38.3839 -77.4536 49° Northeast 499 574 41,000 -850 Level Washington Center
Mon 02:19:41 PM 38.4839 -77.3264 45° Northeast 493 567 39,300 -1,785 Descending Washington Center
Mon 02:20:41 PM 38.5817 -77.2039 44° Northeast 493 567 37,400 -2,390 Descending Washington Center
Mon 02:21:39 PM 38.6833 -77.0756 45° Northeast 493 567 34,600 -3,025 Descending Washington Center
Mon 02:22:40 PM 38.7828 -76.9525 44° Northeast 493 567 31,400 -3,124 Descending Washington Center
Mon 02:23:40 PM 38.8800 -76.8289 45° Northeast 487 560 28,300 -2,975 Descending Washington Center
Mon 02:24:41 PM 38.9728 -76.7131 44° Northeast 481 554 25,400 -2,132 Descending Washington Center
Mon 02:25:41 PM 39.0364 -76.5750 59° Northeast 456 525 24,000 -712 Descending Washington Center
Mon 02:26:39 PM 39.0856 -76.4206 68° East 456 525 24,000  Level Washington Center
Mon 02:27:40 PM 39.1386 -76.2553 67° East 474 545 24,000  Level Washington Center
Mon 02:28:40 PM 39.2353 -76.1247 46° Northeast 484 557 24,000 -894 Level Washington Center
Mon 02:30:21 PM 39.4333 -75.9333 37° Northeast 463 533 21,600 -1,826 Descending Philadelphia TRACON
Mon 02:31:21 PM 39.5333 -75.8333 38° Northeast 469 540 19,100 -2,600 Descending Philadelphia TRACON
Mon 02:32:21 PM 39.6500 -75.7333 33° Northeast 462 532 16,400 -2,500 Descending Philadelphia TRACON
Mon 02:33:21 PM 39.7500 -75.6500 33° Northeast 442 509 14,100 -1,700 Descending Philadelphia TRACON
Mon 02:34:21 PM 39.8333 -75.5667 38° Northeast 409 471 13,000 -550 Descending Philadelphia TRACON
Mon 02:35:21 PM 39.9333 -75.4667 37° Northeast 419 482 13,000  Level Philadelphia TRACON
Mon 02:36:27 PM 40.0333 -75.3667 37° Northeast 419 482 13,000  Level Philadelphia TRACON
Mon 02:37:27 PM 40.1333 -75.2833 32° Northeast 415 478 13,000 -700 Level Philadelphia TRACON
Mon 02:38:27 PM 40.2167 -75.2000 37° Northeast 379 436 11,600 -1,653 Descending Philadelphia TRACON
Mon 02:40:43 PM 40.3833 -75.0333 37° Northeast 320 368 7,600 -1,674 Descending New York TRACON
Mon 02:41:37 PM 40.4333 -74.9500 52° Northeast 290 334 6,300 -1,421 Descending New York TRACON
Mon 02:42:37 PM 40.4833 -74.8833 45° Northeast 293 337 4,900 -1,095 Descending New York TRACON
Mon 02:43:43 PM 40.5500 -74.7833 49° Northeast 297 342 4,000 -429 Descending New York TRACON
Mon 02:44:43 PM 40.6167 -74.7167 37° Northeast 299 344 4,000  Level New York TRACON
Mon 02:45:43 PM 40.6833 -74.6667 30° Northeast 304 350 4,000  Level New York TRACON
Mon 02:46:43 PM 40.7333 -74.5833 52° Northeast 295 339 4,000  Level New York TRACON
Mon 02:47:43 PM 40.8000 -74.5167 37° Northeast 294 338 4,000 -421 Level New York TRACON
Mon 02:48:37 PM 40.8500 -74.4333 52° Northeast 302 348 3,200 -500 Descending New York TRACON
Mon 02:49:43 PM 40.9167 -74.3667 37° Northeast 288 331 3,000 -95 Descending New York TRACON
Mon 02:50:43 PM 40.9667 -74.2833 52° Northeast 289 333 3,000 -450 Level New York TRACON
Mon 02:51:43 PM 41.0000 -74.2000 62° Northeast 269 310 2,100 -500 Descending New York TRACON
Mon 02:52:43 PM 41.0167 -74.1167 75° East 223 257 2,000 -50 Descending New York TRACON
Mon 02:53:43 PM 41.0000 -74.0667 114° Southeast 151 174 2,000 -158 Level New York TRACON
Mon 02:54:37 PM 40.9667 -74.0500 159° South 158 182 1,700 -250 Descending New York TRACON
Mon 02:55:43 PM 40.9333 -74.0500 180° South 144 166 1,500 -400 Descending New York TRACON
Mon 02:56:37 PM 40.9000 -74.0500 180° South 127 146 900 -667 Descending New York TRACON
Mon 02:58:00 PM 40.8500 -74.0500 120° Southeast  Level FlightAware Approximate

Login

Don't have an account? Register now (free) for customized features, flight alerts, and more!